Time;durP1;ratioP1;P1;durP2;ratioP2;P2;SDS_P1;SDS_P2;PMS_P1;PMS_P2;Temp;Humidity;BMP_temperature;BMP_pressure;BME280_temperature;BME280_humidity;BME280_pressure;Samples;Min_cycle;Max_cycle;Signal;HPM_P1;HPM_P2
2022/12/03 00:02:15;;;;;;;6.15;4.97;;;19.80;41.80;;;;;;5115819;28;20059;-11
2022/12/03 00:04:41;;;;;;;5.93;5.03;;;19.80;41.80;;;;;;5116058;28;20051;-10
2022/12/03 00:07:06;;;;;;;5.38;4.50;;;19.80;41.80;;;;;;5115839;28;20466;-10
2022/12/03 00:09:32;;;;;;;6.10;5.28;;;19.80;41.80;;;;;;5115424;28;20047;-10
2022/12/03 00:11:58;;;;;;;6.13;4.75;;;19.80;42.30;;;;;;5114112;28;20431;-10
2022/12/03 00:14:23;;;;;;;5.35;4.82;;;19.80;41.80;;;;;;5116372;28;20051;-10
2022/12/03 00:16:49;;;;;;;5.80;4.45;;;19.80;41.80;;;;;;5116009;28;20101;-10
2022/12/03 00:19:15;;;;;;;5.45;4.88;;;19.80;41.80;;;;;;5115248;28;20382;-10
2022/12/03 00:21:41;;;;;;;6.05;5.05;;;19.80;41.80;;;;;;5115581;28;20060;-11
2022/12/03 00:24:07;;;;;;;5.82;4.80;;;19.80;41.80;;;;;;5115886;28;20055;-10
2022/12/03 00:26:32;;;;;;;6.93;5.18;;;19.80;41.80;;;;;;5115982;28;20141;-10
2022/12/03 00:28:58;;;;;;;5.57;4.53;;;19.80;41.80;;;;;;5115458;28;20059;-11
2022/12/03 00:31:24;;;;;;;5.72;4.78;;;19.80;41.80;;;;;;5115458;28;20404;-10
2022/12/03 00:33:50;;;;;;;6.43;5.13;;;19.80;41.80;;;;;;5115457;28;20508;-10
2022/12/03 00:36:16;;;;;;;6.40;5.25;;;19.80;41.80;;;;;;5115393;28;20043;-10
2022/12/03 00:38:42;;;;;;;6.63;5.20;;;19.80;41.80;;;;;;5115259;28;20070;-10
2022/12/03 00:41:08;;;;;;;6.53;4.80;;;19.70;41.70;;;;;;5115338;28;20062;-10
2022/12/03 00:43:33;;;;;;;6.15;4.78;;;19.80;41.80;;;;;;5114349;28;20050;-10
2022/12/03 00:45:59;;;;;;;6.93;5.40;;;19.80;41.80;;;;;;5115225;28;20055;-10
2022/12/03 00:48:25;;;;;;;6.03;4.65;;;19.80;41.70;;;;;;5115588;28;20043;-10
2022/12/03 00:50:50;;;;;;;5.22;4.70;;;19.80;41.70;;;;;;5115232;28;20048;-10
2022/12/03 00:53:16;;;;;;;5.50;4.55;;;19.80;41.70;;;;;;5115675;28;20062;-10
2022/12/03 00:55:42;;;;;;;5.40;4.90;;;19.70;41.70;;;;;;5115018;28;20562;-10
2022/12/03 00:58:08;;;;;;;5.15;4.50;;;19.70;41.70;;;;;;5115006;28;20083;-10
2022/12/03 01:00:34;;;;;;;5.93;4.93;;;19.80;41.70;;;;;;5114870;28;20059;-10
2022/12/03 01:03:00;;;;;;;4.55;4.07;;;19.80;41.80;;;;;;5115002;28;20156;-10
2022/12/03 01:05:26;;;;;;;5.82;4.82;;;19.70;41.70;;;;;;5114926;28;20047;-10
2022/12/03 01:07:52;;;;;;;5.15;4.63;;;19.80;41.80;;;;;;5096600;28;20404;-10
2022/12/03 01:10:18;;;;;;;4.93;4.20;;;19.80;41.70;;;;;;5115080;28;20043;-10
2022/12/03 01:12:43;;;;;;;5.32;4.50;;;19.80;41.70;;;;;;5114843;28;20545;-10
2022/12/03 01:15:09;;;;;;;5.68;4.63;;;19.80;41.70;;;;;;5114876;28;20134;-10
2022/12/03 01:17:36;;;;;;;5.47;4.45;;;19.80;41.70;;;;;;5114773;28;20063;-10
2022/12/03 01:20:03;;;;;;;5.63;4.53;;;19.80;41.70;;;;;;5114502;28;20602;-10
2022/12/03 01:22:29;;;;;;;5.55;4.53;;;19.80;41.70;;;;;;5114650;28;20055;-10
2022/12/03 01:24:55;;;;;;;4.57;4.13;;;19.80;41.70;;;;;;5114687;28;20208;-10
2022/12/03 01:27:20;;;;;;;4.88;4.40;;;19.80;41.70;;;;;;5114308;28;20503;-11
2022/12/03 01:29:46;;;;;;;5.72;4.25;;;19.80;41.70;;;;;;5114215;28;20071;-11
2022/12/03 01:32:20;;;;;;;4.72;4.22;;;19.80;41.70;;;;;;5114284;28;20442;-10
2022/12/03 01:34:50;;;;;;;5.65;4.72;;;19.80;41.70;;;;;;5114510;28;20059;-10
2022/12/03 01:37:17;;;;;;;4.85;4.35;;;19.80;41.70;;;;;;5114305;28;20095;-11
2022/12/03 01:39:43;;;;;;;6.03;4.65;;;19.80;41.70;;;;;;5113987;28;20117;-10
2022/12/03 01:42:16;;;;;;;5.95;5.10;;;19.80;41.70;;;;;;5114389;28;20051;-11
2022/12/03 01:44:42;;;;;;;6.13;4.90;;;19.80;41.70;;;;;;5114047;28;20059;-11
2022/12/03 01:47:13;;;;;;;5.20;4.43;;;19.80;41.70;;;;;;5114272;28;20485;-10
2022/12/03 01:50:23;;;;;;;5.20;4.40;;;19.80;41.70;;;;;;5113987;28;20044;-10
2022/12/03 01:52:48;;;;;;;4.40;4.00;;;19.70;42.00;;;;;;5114248;28;20066;-10
2022/12/03 01:55:21;;;;;;;5.72;4.88;;;19.70;41.70;;;;;;5114375;28;20404;-11
2022/12/03 01:57:57;;;;;;;4.82;4.03;;;19.80;42.30;;;;;;5114409;28;20442;-11
2022/12/03 02:00:25;;;;;;;5.85;4.95;;;19.80;41.70;;;;;;5114102;28;20055;-10
2022/12/03 02:03:06;;;;;;;5.00;4.20;;;19.80;41.60;;;;;;5114074;28;20108;-10
2022/12/03 02:05:32;;;;;;;5.25;4.75;;;19.80;41.60;;;;;;5113890;28;20051;-11
2022/12/03 02:07:58;;;;;;;5.63;4.63;;;19.80;41.60;;;;;;5114177;28;20548;-10
2022/12/03 02:10:31;;;;;;;4.75;4.20;;;19.80;41.60;;;;;;5113810;28;20404;-10
2022/12/03 02:13:06;;;;;;;5.72;4.45;;;19.80;41.60;;;;;;5113820;28;20096;-10
2022/12/03 02:15:32;;;;;;;5.10;4.25;;;19.70;41.60;;;;;;5113785;28;20408;-10
2022/12/03 02:17:59;;;;;;;4.88;4.38;;;19.80;42.20;;;;;;5113733;28;20051;-10
2022/12/03 02:20:25;;;;;;;5.65;4.72;;;19.80;41.60;;;;;;5113626;28;20105;-10
2022/12/03 02:23:07;;;;;;;5.63;4.50;;;19.70;41.60;;;;;;5113714;28;20050;-10
2022/12/03 02:25:34;;;;;;;6.63;4.97;;;19.80;41.60;;;;;;5113695;28;20047;-10
2022/12/03 02:28:01;;;;;;;6.22;4.65;;;19.80;41.60;;;;;;5113513;28;20454;-10
2022/12/03 02:30:29;;;;;;;5.95;4.63;;;19.80;41.60;;;;;;5113597;28;20404;-10
2022/12/03 02:32:55;;;;;;;5.43;4.47;;;19.80;41.50;;;;;;5114126;28;20111;-10
2022/12/03 02:35:28;;;;;;;5.55;4.68;;;19.80;41.60;;;;;;5113567;28;20044;-11
2022/12/03 02:38:19;;;;;;;5.85;4.50;;;19.80;41.60;;;;;;5113430;28;20134;-11
2022/12/03 02:40:46;;;;;;;;;;;19.80;41.60;;;;;;5113331;28;20077;-10
2022/12/03 02:43:15;;;;;;;5.70;4.25;;;19.80;41.60;;;;;;5113303;28;20014;-10
2022/12/03 02:45:44;;;;;;;5.10;4.28;;;19.80;41.60;;;;;;5113334;28;20052;-10
2022/12/03 02:48:16;;;;;;;5.38;4.88;;;19.80;41.60;;;;;;5113054;28;20426;-11
2022/12/03 02:50:51;;;;;;;4.80;4.18;;;19.70;41.50;;;;;;5113379;28;20511;-11
2022/12/03 02:53:22;;;;;;;5.88;4.70;;;19.70;41.50;;;;;;5113205;28;20047;-11
2022/12/03 02:55:49;;;;;;;5.55;4.43;;;19.70;41.50;;;;;;5113766;28;20060;-10
2022/12/03 02:58:15;;;;;;;5.28;4.38;;;19.70;41.50;;;;;;5113377;28;20061;-10
2022/12/03 03:00:42;;;;;;;4.80;4.28;;;19.70;41.50;;;;;;5112987;28;20055;-10
2022/12/03 03:03:09;;;;;;;5.28;4.50;;;19.70;42.10;;;;;;5113060;28;20062;-11
2022/12/03 03:05:36;;;;;;;6.10;4.53;;;19.70;41.60;;;;;;5112485;28;20134;-10
2022/12/03 03:08:03;;;;;;;5.80;4.43;;;19.70;41.50;;;;;;5112998;28;20059;-11
2022/12/03 03:10:30;;;;;;;5.60;4.68;;;19.70;41.60;;;;;;5113024;28;20063;-10
2022/12/03 03:12:56;;;;;;;5.63;4.60;;;19.70;41.50;;;;;;5113323;28;20051;-10
2022/12/03 03:15:23;;;;;;;5.85;4.85;;;19.70;41.50;;;;;;5112902;28;20062;-10
2022/12/03 03:17:49;;;;;;;5.65;4.60;;;19.70;41.50;;;;;;5112645;28;20058;-11
2022/12/03 03:20:16;;;;;;;5.38;4.38;;;19.70;41.50;;;;;;5113142;28;20092;-10
2022/12/03 03:22:42;;;;;;;6.00;4.63;;;19.70;41.40;;;;;;5113167;28;20409;-11
2022/12/03 03:25:11;;;;;;;6.75;4.22;;;19.70;41.40;;;;;;5112814;28;20386;-10
2022/12/03 03:27:38;;;;;;;4.53;4.05;;;19.70;41.40;;;;;;5112934;28;20063;-10
2022/12/03 03:30:05;;;;;;;5.72;4.28;;;19.70;41.40;;;;;;5113056;28;20043;-10
2022/12/03 03:32:33;;;;;;;4.88;4.35;;;19.70;41.40;;;;;;5113247;28;20051;-10
2022/12/03 03:34:59;;;;;;;5.22;4.18;;;19.70;41.50;;;;;;5112691;28;20059;-10
2022/12/03 03:37:27;;;;;;;4.43;4.03;;;19.70;41.40;;;;;;5112499;28;20060;-11
2022/12/03 03:39:52;;;;;;;5.95;4.75;;;19.70;41.40;;;;;;5112079;28;20070;-10
2022/12/03 03:42:18;;;;;;;4.78;4.15;;;19.70;41.30;;;;;;5112952;28;20496;-10
2022/12/03 03:44:44;;;;;;;6.32;5.00;;;19.80;41.40;;;;;;5112405;28;20147;-10
2022/12/03 03:47:10;;;;;;;4.47;4.07;;;19.80;41.40;;;;;;5112429;28;20138;-10
2022/12/03 03:49:36;;;;;;;4.88;4.22;;;19.80;41.40;;;;;;5112295;28;20048;-10
2022/12/03 03:52:02;;;;;;;4.65;4.20;;;19.70;41.30;;;;;;5112451;28;20078;-10
2022/12/03 03:54:28;;;;;;;4.78;4.28;;;19.80;41.30;;;;;;5112545;28;20159;-11
2022/12/03 03:56:54;;;;;;;4.55;3.72;;;19.80;41.40;;;;;;5112328;28;20052;-11
2022/12/03 03:59:20;;;;;;;6.25;4.57;;;19.70;41.40;;;;;;5112665;28;20086;-10
2022/12/03 04:01:46;;;;;;;5.18;4.38;;;19.80;41.30;;;;;;5112409;28;20079;-10
2022/12/03 04:04:23;;;;;;;5.22;4.50;;;19.80;41.40;;;;;;5112623;28;20054;-10
2022/12/03 04:06:49;;;;;;;4.97;4.15;;;19.80;41.40;;;;;;5112178;28;20047;-11
2022/12/03 04:09:15;;;;;;;5.93;4.68;;;19.70;41.40;;;;;;5112636;28;20051;-11
2022/12/03 04:14:25;;;;;;;5.75;4.70;;;19.80;41.30;;;;;;5112535;28;20071;-10
2022/12/03 04:16:51;;;;;;;5.68;4.65;;;19.80;41.30;;;;;;5112097;28;20455;-10
2022/12/03 04:19:17;;;;;;;4.72;3.95;;;19.80;41.30;;;;;;5114881;28;20059;-11
2022/12/03 04:24:26;;;;;;;4.30;3.80;;;19.80;41.30;;;;;;5115938;28;20398;-10
2022/12/03 04:29:36;;;;;;;5.28;3.72;;;19.80;41.40;;;;;;5115998;28;20047;-10
2022/12/03 04:37:31;;;;;;;4.57;3.83;;;19.80;41.40;;;;;;5115327;28;20047;-11
2022/12/03 04:39:57;;;;;;;4.40;3.92;;;19.70;41.30;;;;;;5115195;28;20074;-11
2022/12/03 04:42:23;;;;;;;5.00;4.28;;;19.80;41.30;;;;;;5115641;28;20055;-10
2022/12/03 04:44:49;;;;;;;4.97;4.18;;;19.80;41.40;;;;;;5115141;28;20066;-11
2022/12/03 04:47:19;;;;;;;5.10;4.22;;;19.80;41.40;;;;;;5115012;28;20095;-11
2022/12/03 04:49:47;;;;;;;5.68;4.40;;;19.80;41.30;;;;;;5114778;28;20051;-11
2022/12/03 04:52:15;;;;;;;5.65;4.40;;;19.80;41.30;;;;;;5115188;28;20435;-11
2022/12/03 04:54:41;;;;;;;4.70;3.95;;;19.80;41.40;;;;;;5114894;28;20047;-11
2022/12/03 04:57:08;;;;;;;5.47;4.50;;;19.80;41.40;;;;;;5114906;28;20084;-11
2022/12/03 04:59:34;;;;;;;5.65;4.15;;;19.80;41.40;;;;;;5114508;28;20055;-11
2022/12/03 05:02:00;;;;;;;5.13;4.10;;;19.80;41.40;;;;;;5115030;28;20051;-10
2022/12/03 05:04:26;;;;;;;4.88;4.10;;;19.80;41.40;;;;;;5114770;28;20051;-10
2022/12/03 05:06:52;;;;;;;5.70;4.35;;;19.80;41.40;;;;;;5114858;28;20047;-10
2022/12/03 05:09:18;;;;;;;4.57;4.18;;;19.80;41.40;;;;;;5114828;28;20039;-10
2022/12/03 05:11:43;;;;;;;5.13;4.07;;;19.80;41.40;;;;;;5114887;28;20185;-10
2022/12/03 05:14:10;;;;;;;4.47;4.03;;;19.80;41.40;;;;;;5115139;28;20047;-10
2022/12/03 05:16:36;;;;;;;4.50;3.70;;;19.80;41.30;;;;;;5114732;28;20044;-10
2022/12/03 05:19:04;;;;;;;5.13;3.97;;;19.80;41.30;;;;;;5096366;28;20067;-10
2022/12/03 05:21:29;;;;;;;4.43;3.90;;;19.80;41.30;;;;;;5114741;28;20134;-10
2022/12/03 05:23:55;;;;;;;5.05;4.05;;;19.80;41.30;;;;;;5114966;28;20240;-10
2022/12/03 05:26:21;;;;;;;5.45;4.50;;;19.80;41.30;;;;;;5114680;28;20138;-10
2022/12/03 05:28:47;;;;;;;4.13;3.72;;;19.80;41.40;;;;;;5114217;28;20051;-10
2022/12/03 05:31:12;;;;;;;5.30;4.30;;;19.80;41.40;;;;;;5114450;28;20051;-10
2022/12/03 05:33:38;;;;;;;5.88;4.28;;;19.80;41.40;;;;;;5114543;28;20044;-10
2022/12/03 05:36:04;;;;;;;4.20;3.63;;;19.80;41.40;;;;;;5114829;28;20105;-10
2022/12/03 05:38:29;;;;;;;4.93;3.95;;;19.70;41.40;;;;;;5114482;28;20496;-11
2022/12/03 05:40:55;;;;;;;4.80;4.05;;;19.80;41.40;;;;;;5114285;28;20059;-10
2022/12/03 05:43:20;;;;;;;5.07;4.38;;;19.80;41.40;;;;;;5114632;28;20061;-11
2022/12/03 05:45:46;;;;;;;4.30;3.65;;;19.80;41.40;;;;;;5114323;28;20061;-10
2022/12/03 05:48:14;;;;;;;4.70;4.20;;;19.80;41.40;;;;;;5114327;28;20051;-10
2022/12/03 05:50:43;;;;;;;4.05;3.55;;;19.80;41.40;;;;;;5114677;28;20143;-10
2022/12/03 05:53:16;;;;;;;4.55;3.88;;;19.80;41.50;;;;;;5114807;28;20043;-10
2022/12/03 05:55:42;;;;;;;4.97;3.85;;;19.80;41.40;;;;;;5114190;28;20060;-10
2022/12/03 05:58:08;;;;;;;5.78;4.18;;;19.80;41.40;;;;;;5114017;28;20050;-10
2022/12/03 06:00:36;;;;;;;4.75;4.10;;;19.80;41.40;;;;;;5113990;28;20068;-10
2022/12/03 06:03:04;;;;;;;4.47;4.07;;;19.80;41.50;;;;;;5114048;28;20051;-10
2022/12/03 06:05:29;;;;;;;4.70;3.90;;;19.70;41.40;;;;;;5114056;28;20047;-10
2022/12/03 06:07:55;;;;;;;4.38;3.80;;;19.80;41.40;;;;;;5113907;28;20051;-10
2022/12/03 06:10:23;;;;;;;4.40;3.70;;;19.70;41.40;;;;;;5113831;28;20499;-10
2022/12/03 06:12:49;;;;;;;4.88;4.20;;;19.70;41.40;;;;;;5113948;28;20079;-10
2022/12/03 06:15:15;;;;;;;4.45;3.75;;;19.80;41.50;;;;;;5113867;28;20048;-10
2022/12/03 06:17:41;;;;;;;4.20;3.55;;;19.80;41.50;;;;;;5113837;28;20055;-10
2022/12/03 06:20:12;;;;;;;4.95;3.78;;;19.80;41.50;;;;;;5113523;28;20051;-10
2022/12/03 06:22:39;;;;;;;4.35;3.95;;;19.70;41.40;;;;;;5113778;28;20059;-10
2022/12/03 06:25:06;;;;;;;4.45;3.67;;;19.70;41.50;;;;;;5113756;28;20109;-10
2022/12/03 06:27:33;;;;;;;4.35;3.55;;;19.70;41.50;;;;;;5113942;28;20051;-10
2022/12/03 06:29:59;;;;;;;4.03;3.63;;;19.70;41.50;;;;;;5113533;28;20040;-10
2022/12/03 06:32:25;;;;;;;4.63;4.10;;;19.70;41.40;;;;;;5113773;28;20055;-10
2022/12/03 06:34:51;;;;;;;4.03;3.63;;;19.80;41.50;;;;;;5113423;28;20047;-10
2022/12/03 06:37:16;;;;;;;4.38;3.97;;;19.70;41.50;;;;;;5113118;28;20060;-11
2022/12/03 06:39:42;;;;;;;4.07;3.67;;;19.70;41.50;;;;;;5113327;28;20494;-10
2022/12/03 06:42:07;;;;;;;4.50;3.70;;;19.70;41.50;;;;;;5112644;28;20058;-10
2022/12/03 06:44:33;;;;;;;4.95;3.90;;;19.70;41.50;;;;;;5113566;28;20146;-10
2022/12/03 06:46:59;;;;;;;4.95;3.88;;;19.70;41.50;;;;;;5113194;28;20136;-10
2022/12/03 06:49:24;;;;;;;4.85;4.03;;;19.70;41.50;;;;;;5113205;28;20181;-10
2022/12/03 06:51:50;;;;;;;5.45;4.13;;;19.70;41.50;;;;;;5113133;28;20397;-10
2022/12/03 06:54:16;;;;;;;5.18;4.45;;;19.70;41.50;;;;;;5113303;28;20100;-10
2022/12/03 06:56:41;;;;;;;4.97;3.90;;;19.70;41.50;;;;;;5113159;28;20485;-11
2022/12/03 06:59:07;;;;;;;4.85;3.67;;;19.70;41.50;;;;;;5113366;28;20059;-10
2022/12/03 07:01:32;;;;;;;4.20;3.80;;;19.80;41.50;;;;;;5113309;28;20079;-10
2022/12/03 07:03:58;;;;;;;4.28;3.47;;;19.80;41.50;;;;;;5113091;28;20052;-11
2022/12/03 07:06:24;;;;;;;3.72;3.33;;;19.70;41.50;;;;;;5113537;28;20091;-10
2022/12/03 07:08:49;;;;;;;4.47;3.50;;;19.70;41.50;;;;;;5112699;28;20044;-11
2022/12/03 07:11:30;;;;;;;4.72;3.72;;;19.80;41.50;;;;;;5077601;28;20052;-10
2022/12/03 07:13:57;;;;;;;3.88;3.35;;;19.70;41.50;;;;;;5095190;28;20366;-10
2022/12/03 07:16:23;;;;;;;5.05;3.67;;;19.70;41.40;;;;;;5112966;28;20390;-10
2022/12/03 07:18:49;;;;;;;4.50;3.75;;;19.70;41.50;;;;;;5112725;28;20044;-10
2022/12/03 07:21:14;;;;;;;4.65;3.97;;;19.80;41.50;;;;;;5112805;28;20488;-10
2022/12/03 07:23:40;;;;;;;4.10;3.50;;;19.80;41.50;;;;;;5113183;28;20043;-10
2022/12/03 07:26:06;;;;;;;4.18;3.53;;;19.80;41.50;;;;;;5112877;28;20092;-10
2022/12/03 07:28:31;;;;;;;4.55;4.07;;;19.80;41.40;;;;;;5112716;28;20059;-10
2022/12/03 07:30:57;;;;;;;5.28;4.00;;;19.80;41.40;;;;;;5113152;28;20046;-10
2022/12/03 07:33:22;;;;;;;4.25;3.85;;;19.70;41.40;;;;;;5112772;28;20138;-10
2022/12/03 07:35:48;;;;;;;4.57;3.88;;;19.70;41.40;;;;;;5112784;28;20489;-10
2022/12/03 07:38:14;;;;;;;4.65;3.83;;;19.70;41.50;;;;;;5112349;28;20051;-11
2022/12/03 07:40:39;;;;;;;4.13;3.50;;;19.80;41.50;;;;;;5112785;28;20056;-10
2022/12/03 07:43:05;;;;;;;4.85;3.83;;;19.70;41.50;;;;;;5112737;28;20052;-10
2022/12/03 07:45:31;;;;;;;4.00;3.40;;;19.70;41.50;;;;;;5112846;28;20485;-10
2022/12/03 07:47:56;;;;;;;4.22;3.83;;;19.80;41.50;;;;;;5112217;28;20058;-10
2022/12/03 07:50:22;;;;;;;5.05;4.00;;;19.80;41.50;;;;;;5112619;28;20058;-10
2022/12/03 07:52:48;;;;;;;4.07;3.60;;;19.80;41.50;;;;;;5114317;28;20048;-10
2022/12/03 07:55:13;;;;;;;3.80;3.40;;;19.70;41.40;;;;;;5116422;28;20051;-11
2022/12/03 07:57:39;;;;;;;4.13;3.58;;;19.70;41.50;;;;;;5116568;28;20489;-10
2022/12/03 08:00:06;;;;;;;4.20;3.75;;;19.80;41.50;;;;;;5111804;28;20130;-11
2022/12/03 08:02:32;;;;;;;4.03;3.63;;;19.80;41.50;;;;;;5115953;28;20051;-10
2022/12/03 08:04:59;;;;;;;3.95;3.55;;;19.80;41.40;;;;;;5115943;28;20056;-10
2022/12/03 08:07:25;;;;;;;4.70;4.20;;;19.70;41.50;;;;;;5115601;28;20466;-11
2022/12/03 08:09:51;;;;;;;4.38;3.90;;;19.80;41.50;;;;;;5113936;28;20047;-11
2022/12/03 08:12:40;;;;;;;4.15;3.38;;;19.80;41.50;;;;;;5115893;28;20063;-11
2022/12/03 08:15:35;;;;;;;5.47;3.90;;;19.80;41.40;;;;;;5115853;28;20051;-11
2022/12/03 08:18:11;;;;;;;4.35;3.65;;;19.80;41.40;;;;;;5093578;28;20451;-11
2022/12/03 08:20:39;;;;;;;3.95;3.40;;;19.70;41.40;;;;;;5115692;28;20477;-10
2022/12/03 08:23:14;;;;;;;3.92;3.50;;;19.80;41.40;;;;;;5115706;28;20059;-10
2022/12/03 08:25:40;;;;;;;4.47;3.80;;;19.70;41.90;;;;;;5115644;28;20054;-10
2022/12/03 08:28:25;;;;;;;4.00;3.47;;;19.80;41.40;;;;;;5115384;28;20056;-11
2022/12/03 08:31:17;;;;;;;4.00;3.50;;;19.80;41.40;;;;;;5115535;28;20499;-10
2022/12/03 08:33:43;;;;;;;5.03;3.70;;;19.80;41.40;;;;;;5115580;28;20436;-10
2022/12/03 08:36:35;;;;;;;4.30;3.80;;;19.80;41.30;;;;;;5115406;28;20058;-10
2022/12/03 08:39:26;;;;;;;4.68;3.35;;;19.80;41.40;;;;;;5115332;28;20438;-11
2022/12/03 08:44:41;;;;;;;4.18;3.55;;;19.80;41.40;;;;;;5115315;28;20051;-10
2022/12/03 08:47:17;;;;;;;4.32;3.78;;;19.80;41.40;;;;;;5115462;28;20922;-10
2022/12/03 08:49:58;;;;;;;5.65;3.90;;;19.80;41.40;;;;;;5115081;28;20117;-10
2022/12/03 08:52:32;;;;;;;3.95;3.55;;;19.80;41.40;;;;;;5115483;28;20060;-11
2022/12/03 08:54:59;;;;;;;4.20;3.67;;;19.80;41.30;;;;;;5115079;28;20052;-10
2022/12/03 08:57:33;;;;;;;5.07;3.55;;;19.80;41.30;;;;;;5114798;28;20205;-11
2022/12/03 09:00:21;;;;;;;3.30;3.00;;;19.80;41.30;;;;;;5115050;28;20093;-11
2022/12/03 09:02:50;;;;;;;6.18;4.07;;;19.80;41.20;;;;;;5115000;28;20044;-10
2022/12/03 09:05:22;;;;;;;4.63;3.40;;;19.80;41.20;;;;;;5114505;28;20100;-10
2022/12/03 09:07:48;;;;;;;5.07;3.40;;;19.80;41.20;;;;;;5114917;28;20039;-10
2022/12/03 09:10:14;;;;;;;4.32;3.78;;;19.80;41.20;;;;;;5115323;28;20503;-11
2022/12/03 09:12:40;;;;;;;3.83;3.40;;;19.80;41.20;;;;;;5114854;28;20047;-10
2022/12/03 09:15:06;;;;;;;4.38;3.80;;;19.80;41.20;;;;;;5114766;28;20134;-11
2022/12/03 09:17:33;;;;;;;3.72;3.30;;;19.80;41.20;;;;;;5114709;28;20051;-11
2022/12/03 09:19:59;;;;;;;3.97;3.55;;;19.90;41.20;;;;;;5114699;28;20066;-10
2022/12/03 09:22:24;;;;;;;4.03;3.47;;;19.90;41.20;;;;;;5115015;28;20051;-10
2022/12/03 09:24:50;;;;;;;4.05;3.33;;;19.90;41.20;;;;;;5114566;28;20060;-10
2022/12/03 09:27:16;;;;;;;4.32;3.50;;;19.90;41.70;;;;;;5114523;28;20551;-10
2022/12/03 09:29:42;;;;;;;4.00;3.55;;;19.90;41.10;;;;;;5114886;28;20139;-10
2022/12/03 09:32:07;;;;;;;4.13;3.40;;;19.90;41.10;;;;;;5114642;28;20052;-11
2022/12/03 09:34:33;;;;;;;4.38;3.42;;;19.90;41.10;;;;;;5114851;28;20050;-11
2022/12/03 09:37:00;;;;;;;3.50;3.20;;;19.90;41.10;;;;;;5114945;28;20054;-10
2022/12/03 09:39:25;;;;;;;3.53;3.15;;;19.90;41.10;;;;;;5114261;28;20059;-10
2022/12/03 09:41:51;;;;;;;4.00;3.60;;;19.90;41.10;;;;;;5114600;28;20051;-10
2022/12/03 09:44:17;;;;;;;3.78;3.15;;;19.90;41.10;;;;;;5114432;28;20132;-10
2022/12/03 09:46:43;;;;;;;3.63;3.33;;;19.90;41.10;;;;;;5114771;28;20054;-10
2022/12/03 09:49:14;;;;;;;3.70;3.30;;;19.90;41.40;;;;;;5095954;28;20409;-10
2022/12/03 09:51:40;;;;;;;3.72;3.40;;;19.90;41.10;;;;;;5114644;28;20047;-10
2022/12/03 09:54:06;;;;;;;4.32;3.33;;;19.90;41.20;;;;;;5114168;28;20051;-10
2022/12/03 09:56:36;;;;;;;5.53;3.95;;;19.90;41.20;;;;;;5114473;28;20171;-11
2022/12/03 09:59:05;;;;;;;4.53;3.45;;;19.80;41.20;;;;;;5114068;28;20438;-11
2022/12/03 10:01:31;;;;;;;3.72;3.30;;;19.80;41.20;;;;;;5114104;28;20051;-10
2022/12/03 10:03:57;;;;;;;3.72;3.33;;;19.90;41.30;;;;;;5114279;28;20043;-11
2022/12/03 10:06:24;;;;;;;4.10;3.47;;;19.90;41.20;;;;;;5114057;28;20055;-10
2022/12/03 10:08:53;;;;;;;4.60;3.30;;;19.80;41.20;;;;;;5113959;28;20537;-11
2022/12/03 10:11:21;;;;;;;4.15;3.75;;;19.80;41.20;;;;;;5113825;28;20136;-10
2022/12/03 10:13:47;;;;;;;4.32;3.70;;;19.90;41.20;;;;;;5113791;28;20091;-10
2022/12/03 10:16:17;;;;;;;3.60;3.28;;;19.90;41.20;;;;;;5112953;28;20446;-10
2022/12/03 10:18:50;;;;;;;3.60;3.30;;;19.90;41.20;;;;;;5113793;28;20051;-11
2022/12/03 10:21:31;;;;;;;3.97;3.38;;;19.90;41.20;;;;;;5113700;28;20047;-10
2022/12/03 10:24:18;;;;;;;4.23;3.57;;;19.80;41.10;;;;;;5113880;28;20408;-10
2022/12/03 10:26:44;;;;;;;3.65;3.25;;;19.80;41.20;;;;;;5113710;28;20082;-11
2022/12/03 10:29:34;;;;;;;3.47;3.17;;;19.80;41.20;;;;;;5113382;28;20043;-11
2022/12/03 10:32:03;;;;;;;4.20;3.60;;;19.80;41.20;;;;;;5113832;28;20062;-10
2022/12/03 10:34:40;;;;;;;5.05;3.75;;;19.80;41.20;;;;;;5113391;28;20147;-11
2022/12/03 10:37:18;;;;;;;4.38;3.80;;;19.80;41.20;;;;;;5113404;28;20130;-10
2022/12/03 10:40:04;;;;;;;3.85;3.45;;;19.80;41.20;;;;;;5113804;28;20465;-10
2022/12/03 10:42:34;;;;;;;4.13;3.45;;;19.80;41.20;;;;;;5113683;28;20060;-10
2022/12/03 10:45:11;;;;;;;4.50;3.58;;;19.70;41.20;;;;;;5113326;28;20053;-10
2022/12/03 10:47:36;;;;;;;5.32;3.75;;;19.80;41.30;;;;;;5113060;28;20438;-11
2022/12/03 10:50:05;;;;;;;3.95;3.50;;;19.80;41.30;;;;;;5111324;28;20146;-10
2022/12/03 10:52:32;;;;;;;3.67;3.30;;;19.80;41.20;;;;;;5113566;28;20047;-10
2022/12/03 10:54:58;;;;;;;4.10;3.70;;;19.80;41.30;;;;;;5113277;28;20062;-11
2022/12/03 10:57:24;;;;;;;4.00;3.40;;;19.80;41.70;;;;;;5113063;28;20059;-10
2022/12/03 10:59:50;;;;;;;4.25;3.58;;;19.80;41.30;;;;;;5112802;28;20047;-10
2022/12/03 11:02:20;;;;;;;4.63;3.65;;;19.80;41.20;;;;;;5113021;28;20056;-10
2022/12/03 11:04:47;;;;;;;4.23;3.83;;;19.80;41.20;;;;;;5113035;28;20063;-11
2022/12/03 11:07:18;;;;;;;4.20;3.60;;;19.80;41.20;;;;;;5113058;28;20560;-10
2022/12/03 11:09:47;;;;;;;3.47;3.17;;;19.80;41.30;;;;;;5112948;28;20142;-10
2022/12/03 11:12:26;;;;;;;4.15;3.60;;;19.80;41.30;;;;;;5112880;28;20080;-11
2022/12/03 11:14:56;;;;;;;4.00;3.38;;;19.80;41.30;;;;;;5112806;28;20077;-10
2022/12/03 11:17:51;;;;;;;3.28;2.97;;;19.80;41.30;;;;;;5112663;28;20121;-11
2022/12/03 11:20:23;;;;;;;4.28;3.58;;;19.80;41.30;;;;;;5112986;28;20130;-11
2022/12/03 11:22:54;;;;;;;3.60;3.15;;;19.80;41.20;;;;;;5112879;28;20043;-11
2022/12/03 11:25:25;;;;;;;3.42;3.13;;;19.80;41.20;;;;;;5113281;28;20077;-11
2022/12/03 11:28:12;;;;;;;3.72;3.33;;;19.80;41.20;;;;;;5114505;28;20062;-10
2022/12/03 11:30:47;;;;;;;3.92;3.40;;;19.80;41.20;;;;;;5116573;28;20067;-10
2022/12/03 11:33:30;;;;;;;4.10;3.53;;;19.80;41.20;;;;;;5116809;28;20051;-10
2022/12/03 11:36:01;;;;;;;4.35;3.47;;;19.80;41.20;;;;;;5116835;28;20404;-10
2022/12/03 11:38:37;;;;;;;3.92;3.53;;;19.80;41.20;;;;;;5116193;28;20052;-10
2022/12/03 11:41:11;;;;;;;3.83;3.38;;;19.80;41.10;;;;;;5116332;28;20138;-10
2022/12/03 11:43:52;;;;;;;6.00;4.10;;;19.80;41.10;;;;;;5116250;28;20083;-11
2022/12/03 11:46:36;;;;;;;4.22;3.33;;;19.80;41.10;;;;;;5116194;28;20047;-11
2022/12/03 11:49:18;;;;;;;4.25;3.40;;;19.90;41.20;;;;;;5116127;28;20047;-11
2022/12/03 11:51:43;;;;;;;3.80;3.13;;;19.80;41.10;;;;;;5116438;28;20048;-10
2022/12/03 11:54:15;;;;;;;4.15;2.67;;;19.80;41.10;;;;;;5116377;28;20127;-10
2022/12/03 11:56:47;;;;;;;4.20;3.55;;;19.90;41.10;;;;;;5116123;28;20063;-11
2022/12/03 11:59:15;;;;;;;3.25;2.90;;;19.80;41.10;;;;;;5116346;28;20396;-10
2022/12/03 12:01:42;;;;;;;3.67;3.08;;;19.90;41.10;;;;;;5116043;28;20084;-10
2022/12/03 12:04:27;;;;;;;4.10;3.25;;;19.80;41.10;;;;;;5115972;28;20044;-11
2022/12/03 12:06:52;;;;;;;4.47;3.58;;;19.80;41.10;;;;;;5116184;28;20063;-10
2022/12/03 12:09:50;;;;;;;4.65;3.63;;;19.80;41.10;;;;;;5115970;28;20051;-10
2022/12/03 12:12:27;;;;;;;3.45;3.05;;;19.80;41.10;;;;;;5115765;28;20113;-10
2022/12/03 12:14:52;;;;;;;3.47;2.92;;;19.80;41.10;;;;;;5115989;28;20051;-11
2022/12/03 12:17:35;;;;;;;4.22;3.60;;;19.90;41.10;;;;;;5115650;28;20043;-11
2022/12/03 12:20:21;;;;;;;4.45;3.72;;;19.80;41.10;;;;;;5115528;28;20058;-10
2022/12/03 12:22:46;;;;;;;4.90;3.72;;;19.80;41.10;;;;;;5115811;28;20477;-10
2022/12/03 12:25:29;;;;;;;4.25;3.50;;;19.80;41.10;;;;;;5115860;28;20059;-11
2022/12/03 12:27:55;;;;;;;3.80;3.25;;;19.80;41.10;;;;;;5115538;28;20052;-10
2022/12/03 12:30:22;;;;;;;4.30;3.42;;;19.80;41.10;;;;;;5115551;28;20104;-10
2022/12/03 12:32:50;;;;;;;3.70;3.30;;;19.80;41.10;;;;;;5114558;28;20058;-10
2022/12/03 12:35:20;;;;;;;3.72;3.28;;;19.80;41.10;;;;;;5115501;28;20040;-10
2022/12/03 12:37:59;;;;;;;3.43;3.13;;;19.80;41.10;;;;;;5115489;28;20096;-10
2022/12/03 12:40:28;;;;;;;3.50;3.08;;;19.80;41.10;;;;;;5114664;28;20055;-11
2022/12/03 12:43:02;;;;;;;3.78;3.10;;;19.80;41.10;;;;;;5115234;28;20087;-10
2022/12/03 12:45:32;;;;;;;3.80;3.42;;;19.80;41.10;;;;;;5115202;28;20233;-10
2022/12/03 12:48:26;;;;;;;3.17;2.42;;;19.80;41.10;;;;;;5115191;28;20549;-11
2022/12/03 12:51:11;;;;;;;4.55;3.50;;;19.80;41.10;;;;;;5115555;28;20090;-10
2022/12/03 12:53:38;;;;;;;3.13;2.83;;;19.80;41.10;;;;;;5115310;28;20055;-10
2022/12/03 12:56:25;;;;;;;3.42;2.97;;;19.80;41.10;;;;;;5115352;28;20040;-11
2022/12/03 12:58:52;;;;;;;3.53;3.17;;;19.80;41.10;;;;;;5096798;28;20386;-11
2022/12/03 13:01:27;;;;;;;4.28;3.40;;;19.80;41.10;;;;;;5115126;28;20047;-10
2022/12/03 13:03:53;;;;;;;3.83;3.42;;;19.80;41.10;;;;;;5115442;28;20055;-11
2022/12/03 13:06:24;;;;;;;3.95;3.10;;;19.80;41.10;;;;;;5114583;28;20077;-11
2022/12/03 13:08:50;;;;;;;3.15;2.85;;;19.80;41.10;;;;;;5114995;28;20116;-10
2022/12/03 13:11:29;;;;;;;4.63;3.60;;;19.80;41.10;;;;;;5114955;28;20060;-11
2022/12/03 13:13:55;;;;;;;4.63;3.50;;;19.80;41.10;;;;;;5114990;28;20071;-10
2022/12/03 13:16:29;;;;;;;3.50;3.20;;;19.80;41.10;;;;;;5114613;28;20500;-11